Time;durP1;ratioP1;P1;durP2;ratioP2;P2;SDS_P1;SDS_P2;PMS_P1;PMS_P2;Temp;Humidity;BMP_temperature;BMP_pressure;BME280_temperature;BME280_humidity;BME280_pressure;Samples;Min_cycle;Max_cycle;Signal;HPM_P1;HPM_P2
2022/04/22 00:00:44;;;;;;;13.25;7.40;;;;;;;9.04;53.29;99323.37;4344096;32;33273;-82
2022/04/22 00:03:12;;;;;;;11.50;7.22;;;;;;;8.83;53.97;99326.03;4354362;32;32669;-81
2022/04/22 00:05:40;;;;;;;13.65;7.07;;;;;;;8.59;55.25;99330.59;4357161;32;32912;-81
2022/04/22 00:08:08;;;;;;;12.23;6.00;;;;;;;8.76;54.85;99316.69;4331487;32;33105;-80
2022/04/22 00:11:28;;;;;;;10.43;6.28;;;;;;;8.75;54.52;99322.03;4356307;32;34710;-81
2022/04/22 00:13:25;;;;;;;11.27;6.57;;;;;;;8.79;54.76;99320.97;4345057;32;33790;-80
2022/04/22 00:15:54;;;;;;;10.98;7.22;;;;;;;8.88;54.58;99310.88;4343404;32;32115;-80
2022/04/22 00:18:23;;;;;;;9.77;6.37;;;;;;;8.94;54.31;99307.97;4342440;32;33400;-80
2022/04/22 00:20:59;;;;;;;11.88;6.60;;;;;;;9.14;54.13;99311.47;4352379;32;34702;-80
2022/04/22 00:23:27;;;;;;;9.13;5.65;;;;;;;9.22;53.95;99302.31;4353215;32;33496;-80
2022/04/22 00:25:58;;;;;;;10.90;7.22;;;;;;;9.29;53.81;99304.66;4349427;32;32122;-80
2022/04/22 00:28:25;;;;;;;10.77;6.78;;;;;;;9.24;54.08;99305.72;4349253;32;34594;-80
2022/04/22 00:30:53;;;;;;;9.75;6.70;;;;;;;9.42;53.60;99297.91;4349298;32;33981;-80
2022/04/22 00:33:21;;;;;;;10.75;6.47;;;;;;;9.28;53.95;99303.81;4355195;32;34530;-81
2022/04/22 00:35:49;;;;;;;11.18;6.90;;;;;;;9.42;53.41;99301.38;4355561;32;34077;-80
2022/04/22 00:38:17;;;;;;;10.02;6.12;;;;;;;9.30;54.16;99294.03;4355300;32;34547;-80
2022/04/22 00:40:45;;;;;;;10.98;6.15;;;;;;;9.48;53.49;99287.91;4362553;32;33486;-80
2022/04/22 00:43:17;;;;;;;14.57;7.12;;;;;;;9.36;54.18;99283.22;4355258;32;33983;-80
2022/04/22 00:45:47;;;;;;;8.80;6.40;;;;;;;9.32;54.28;99283.44;4354818;32;33215;-80
2022/04/22 00:48:16;;;;;;;10.25;6.80;;;;;;;9.33;54.55;99279.88;4353991;32;33864;-80
2022/04/22 00:50:44;;;;;;;16.23;7.32;;;;;;;9.35;54.26;99271.00;4348993;32;32711;-80
2022/04/22 00:53:13;;;;;;;12.88;7.12;;;;;;;9.44;54.10;99270.53;4349116;32;34184;-80
2022/04/22 00:55:43;;;;;;;13.68;6.62;;;;;;;9.65;53.80;99262.53;4348933;32;33750;-80
2022/04/22 00:58:11;;;;;;;10.13;5.97;;;;;;;9.58;53.93;99266.38;4353803;32;34621;-81
2022/04/22 01:00:41;;;;;;;8.77;6.78;;;;;;;9.49;54.09;99257.13;4355673;32;34486;-81
2022/04/22 01:03:09;;;;;;;11.25;7.32;;;;;;;9.73;53.17;99257.72;4341161;32;32720;-81
2022/04/22 01:11:14;;;;;;;12.55;7.07;;;;;;;9.59;54.03;99253.16;4354986;32;33774;-81
2022/04/22 01:13:44;;;;;;;10.25;7.03;;;;;;;9.63;54.09;99256.47;4355673;32;33196;-81
2022/04/22 01:16:11;;;;;;;10.85;7.32;;;;;;;9.73;53.91;99247.19;4348151;32;32175;-81
2022/04/22 01:18:40;;;;;;;11.90;7.28;;;;;;;9.63;54.23;99243.28;4352736;32;33775;-80
2022/04/22 01:21:08;;;;;;;9.07;6.53;;;;;;;9.69;53.98;99240.38;4354260;32;34484;-80
2022/04/22 01:23:36;;;;;;;13.38;7.85;;;;;;;10.05;52.91;99228.91;4354144;32;33061;-80
2022/04/22 01:26:04;;;;;;;11.52;7.00;;;;;;;9.62;54.75;99233.69;4341047;32;34097;-80
2022/04/22 01:28:33;;;;;;;12.20;6.70;;;;;;;9.68;54.86;99233.38;4356443;32;34290;-80
2022/04/22 01:31:01;;;;;;;13.15;6.95;;;;;;;9.71;54.95;99235.88;4354663;32;33931;-80
2022/04/22 01:33:29;;;;;;;11.55;6.70;;;;;;;9.70;54.88;99228.91;4352981;32;33903;-80
2022/04/22 01:35:57;;;;;;;11.73;7.40;;;;;;;9.82;54.79;99217.72;4355943;32;33523;-79
2022/04/22 01:38:25;;;;;;;8.27;6.30;;;;;;;9.93;54.35;99214.56;4354522;32;34647;-80
2022/04/22 01:40:56;;;;;;;13.57;6.90;;;;;;;9.84;54.55;99207.97;4354490;32;33872;-80
2022/04/22 01:43:29;;;;;;;11.75;6.53;;;;;;;9.70;55.26;99218.34;4354458;32;33186;-80
2022/04/22 01:45:56;;;;;;;9.55;6.40;;;;;;;9.65;55.84;99210.66;4354759;32;33150;-80
2022/04/22 01:48:25;;;;;;;11.82;6.93;;;;;;;9.93;54.73;99196.97;4354911;32;33446;-80
2022/04/22 01:50:53;;;;;;;13.80;6.70;;;;;;;10.06;54.29;99193.69;4354082;32;33614;-80
2022/04/22 01:53:21;;;;;;;12.75;7.03;;;;;;;9.95;54.70;99196.88;4354035;32;33723;-80
2022/04/22 01:55:49;;;;;;;13.05;7.50;;;;;;;10.04;53.99;99185.00;4354735;32;33487;-80
2022/04/22 01:58:17;;;;;;;12.52;7.18;;;;;;;9.84;54.90;99186.88;4354634;32;33901;-80
2022/04/22 02:00:44;;;;;;;11.43;6.80;;;;;;;9.85;55.31;99169.28;4343261;32;32709;-80
2022/04/22 02:03:12;;;;;;;11.77;6.70;;;;;;;9.79;55.51;99170.44;4353192;32;33813;-80
2022/04/22 02:05:40;;;;;;;10.70;6.65;;;;;;;9.76;55.23;99175.84;4353567;32;33178;-80
2022/04/22 02:08:09;;;;;;;10.57;6.90;;;;;;;9.78;55.03;99178.41;4342016;32;32222;-80
2022/04/22 02:10:37;;;;;;;9.45;6.68;;;;;;;9.78;54.88;99178.41;4342162;32;32670;-80
2022/04/22 02:13:07;;;;;;;11.38;7.30;;;;;;;10.01;54.18;99181.56;4354396;32;32439;-80
2022/04/22 02:15:36;;;;;;;8.35;6.43;;;;;;;9.78;54.75;99181.94;4342572;32;34085;-80
2022/04/22 02:18:05;;;;;;;16.27;7.90;;;;;;;9.82;54.72;99174.69;4343721;32;32952;-80
2022/04/22 02:20:32;;;;;;;12.48;6.47;;;;;;;9.94;54.06;99168.81;4356207;32;33167;-80
2022/04/22 02:23:01;;;;;;;10.15;7.47;;;;;;;9.84;54.32;99167.56;4343128;32;34329;-80
2022/04/22 02:25:35;;;;;;;13.88;8.18;;;;;;;9.92;54.21;99165.38;4355404;32;34349;-80
2022/04/22 02:30:51;;;;;;;9.45;6.53;;;;;;;9.71;53.75;99167.31;4351394;32;33150;-80
2022/04/22 02:33:19;;;;;;;12.43;7.25;;;;;;;10.27;50.16;99163.59;4363165;32;33550;-80
2022/04/22 02:35:47;;;;;;;10.80;7.18;;;;;;;10.49;50.57;99166.81;4353679;32;33540;-80
2022/04/22 02:38:15;;;;;;;12.80;6.15;;;;;;;10.28;50.05;99165.31;4356759;32;34590;-80
2022/04/22 02:46:24;;;;;;;11.12;7.00;;;;;;;10.45;49.72;99149.44;4355934;32;34147;-82
2022/04/22 02:48:58;;;;;;;9.65;6.55;;;;;;;10.95;50.23;99148.44;4357003;32;34401;-81
2022/04/22 02:51:28;;;;;;;11.70;7.43;;;;;;;10.84;51.11;99140.28;4356432;32;33462;-82
2022/04/22 02:53:56;;;;;;;13.07;6.72;;;;;;;10.96;51.68;99144.84;4359365;32;33435;-81
2022/04/22 02:56:24;;;;;;;11.00;7.12;;;;;;;10.95;52.32;99143.16;4355516;32;33482;-82
2022/04/22 02:59:02;;;;;;;11.70;7.12;;;;;;;10.39;53.63;99148.88;4355077;32;32767;-82
2022/04/22 03:01:34;;;;;;;14.60;6.72;;;;;;;10.62;51.12;99137.94;4364821;32;33744;-82
2022/04/22 03:04:02;;;;;;;9.68;6.72;;;;;;;10.76;49.66;99126.63;4355875;32;34517;-81
2022/04/22 03:06:29;;;;;;;11.40;7.28;;;;;;;10.82;48.69;99131.56;4356772;32;32941;-81
2022/04/22 03:08:58;;;;;;;13.82;6.35;;;;;;;10.86;47.83;99133.09;4358458;32;33801;-81
2022/04/22 03:11:26;;;;;;;14.95;7.97;;;;;;;11.00;47.53;99127.06;4337245;32;33393;-80
2022/04/22 03:13:54;;;;;;;13.35;8.05;;;;;;;10.93;47.03;99123.91;4355355;32;34258;-81
2022/04/22 03:16:26;;;;;;;12.15;7.40;;;;;;;11.15;46.29;99120.06;4356744;32;33581;-80
2022/04/22 03:18:54;;;;;;;8.13;6.28;;;;;;;11.19;46.39;99113.66;4357092;32;34491;-81
2022/04/22 03:21:25;;;;;;;12.77;5.97;;;;;;;11.26;46.36;99110.59;4331503;32;32965;-80
2022/04/22 03:23:53;;;;;;;14.48;7.55;;;;;;;11.22;46.73;99105.56;4351733;32;34451;-81
2022/04/22 03:26:21;;;;;;;11.07;7.30;;;;;;;11.37;45.93;99107.31;4354953;32;33865;-81
2022/04/22 03:28:57;;;;;;;10.55;6.95;;;;;;;11.53;45.53;99097.53;4344944;32;33440;-82
2022/04/22 03:31:25;;;;;;;12.60;6.93;;;;;;;11.48;45.82;99096.13;4343624;32;32690;-81
2022/04/22 03:33:56;;;;;;;11.25;6.57;;;;;;;11.63;45.82;99097.88;4342744;32;34256;-81
2022/04/22 03:36:27;;;;;;;8.93;6.40;;;;;;;11.62;45.48;99090.88;4338094;32;33124;-81
2022/04/22 03:38:57;;;;;;;9.45;6.00;;;;;;;11.88;44.51;99086.72;4337387;32;33983;-81
2022/04/22 03:41:26;;;;;;;16.15;7.80;;;;;;;11.73;44.73;99087.59;4336917;32;32899;-81
2022/04/22 03:43:55;;;;;;;13.40;7.30;;;;;;;11.45;46.18;99093.66;4362791;32;34633;-81
2022/04/22 03:46:30;;;;;;;8.18;5.90;;;;;;;11.72;45.72;99092.00;4354283;32;33033;-80
2022/04/22 03:49:01;;;;;;;12.82;7.22;;;;;;;11.89;44.79;99096.34;4351799;32;34199;-80
2022/04/22 03:51:31;;;;;;;10.68;6.03;;;;;;;11.74;44.96;99087.50;4354296;32;33729;-80
2022/04/22 03:53:58;;;;;;;9.77;7.10;;;;;;;11.71;44.91;99094.75;4355193;32;33723;-80
2022/04/22 03:59:14;;;;;;;8.90;5.65;;;;;;;11.76;44.53;99095.34;4351685;32;33801;-81
2022/04/22 04:01:43;;;;;;;10.02;6.30;;;;;;;12.11;43.77;99095.06;4359882;32;33988;-81
2022/04/22 04:04:12;;;;;;;9.50;5.97;;;;;;;12.19;43.41;99093.63;4337507;32;32920;-81
2022/04/22 04:06:40;;;;;;;9.40;5.97;;;;;;;12.18;43.95;99099.00;4349041;32;34119;-81
2022/04/22 04:17:38;;;;;;;10.45;6.95;;;;;;;12.30;43.35;99083.22;4355852;32;33199;-81
2022/04/22 04:25:43;;;;;;;8.48;6.07;;;;;;;12.11;44.55;99097.69;4361400;32;33071;-80
2022/04/22 04:28:15;;;;;;;11.07;6.45;;;;;;;11.77;44.85;99089.97;4349526;32;33456;-80
2022/04/22 04:30:44;;;;;;;9.38;6.75;;;;;;;11.84;45.60;99085.19;4336558;32;32430;-80
2022/04/22 04:33:16;;;;;;;11.02;7.70;;;;;;;12.11;45.41;99087.13;4355866;32;34790;-80
2022/04/22 04:35:46;;;;;;;12.55;6.57;;;;;;;11.84;45.77;99092.28;4362314;32;34194;-81
2022/04/22 04:38:15;;;;;;;10.27;6.80;;;;;;;11.96;44.45;99100.34;4368590;32;33228;-81
2022/04/22 04:40:44;;;;;;;11.27;7.35;;;;;;;12.12;43.97;99091.47;4350446;32;34650;-81
2022/04/22 04:43:16;;;;;;;11.15;6.97;;;;;;;12.04;44.68;99091.91;4344075;32;33927;-80
2022/04/22 04:45:45;;;;;;;;;;;;;;;11.85;45.15;99102.75;4368773;32;32342;-80
2022/04/22 04:48:14;;;;;;;11.40;6.03;;;;;;;12.16;44.18;99093.81;4358709;32;34007;-80
2022/04/22 04:50:45;;;;;;;10.88;6.57;;;;;;;12.31;43.10;99089.38;4355330;32;33679;-81
2022/04/22 04:53:23;;;;;;;10.88;6.87;;;;;;;11.86;43.93;99101.81;4343894;32;33675;-82
2022/04/22 04:55:52;;;;;;;9.20;6.47;;;;;;;12.18;43.51;99102.50;4356568;32;33973;-83
2022/04/22 04:58:22;;;;;;;11.57;7.15;;;;;;;12.11;43.68;99100.34;4355939;32;32521;-82
2022/04/22 05:00:52;;;;;;;13.07;7.75;;;;;;;12.21;44.45;99099.69;4344022;32;33994;-81
2022/04/22 05:03:21;;;;;;;11.50;8.02;;;;;;;11.95;44.60;99093.31;4354096;32;32762;-82
2022/04/22 05:05:51;;;;;;;12.15;7.15;;;;;;;11.78;45.57;99112.81;4341553;32;32428;-82
2022/04/22 05:08:19;;;;;;;10.32;7.32;;;;;;;11.83;45.74;99112.59;4348884;32;33327;-81
2022/04/22 05:10:47;;;;;;;9.98;7.68;;;;;;;11.95;44.87;99114.47;4359038;32;34168;-81
2022/04/22 05:13:16;;;;;;;12.50;7.45;;;;;;;11.66;46.37;99117.97;4354277;32;34840;-82
2022/04/22 05:15:49;;;;;;;15.40;7.30;;;;;;;12.02;44.88;99110.53;4346882;32;34361;-81
2022/04/22 05:18:19;;;;;;;12.10;7.75;;;;;;;12.15;44.09;99107.13;4351884;32;33434;-81
2022/04/22 05:20:51;;;;;;;13.68;8.65;;;;;;;11.81;45.28;99114.44;4329809;32;32679;-81
2022/04/22 05:23:21;;;;;;;11.00;6.30;;;;;;;11.57;45.23;99124.66;4337248;32;34382;-82
2022/04/22 05:25:50;;;;;;;10.73;7.45;;;;;;;11.92;44.23;99121.78;4330135;32;33838;-81
2022/04/22 05:28:21;;;;;;;12.82;7.40;;;;;;;11.76;45.08;99121.78;4334577;32;33455;-81
2022/04/22 05:33:40;;;;;;;11.63;6.93;;;;;;;11.88;44.47;99102.59;4335427;32;34323;-82
2022/04/22 05:36:09;;;;;;;;;;;;;;;11.60;44.83;99113.06;4335459;32;33081;-82
2022/04/22 05:38:38;;;;;;;19.20;6.75;;;;;;;12.07;44.46;99125.28;4348023;32;33245;-83
2022/04/22 05:41:06;;;;;;;15.52;7.57;;;;;;;11.72;45.14;99123.75;4346877;32;34540;-82
2022/04/22 05:43:37;;;;;;;11.45;7.32;;;;;;;11.96;44.52;99108.28;4341206;32;33280;-83
2022/04/22 05:46:05;;;;;;;14.23;9.07;;;;;;;11.91;45.01;99107.66;4335152;32;33326;-82
2022/04/22 05:48:34;;;;;;;10.82;7.25;;;;;;;11.89;44.94;99106.91;4340728;32;33251;-82
2022/04/22 05:51:02;;;;;;;16.98;8.50;;;;;;;11.82;45.07;99100.31;4335120;32;35083;-82
2022/04/22 05:53:30;;;;;;;12.15;8.38;;;;;;;12.14;44.41;99097.50;4335175;32;32850;-82
2022/04/22 05:55:59;;;;;;;12.57;7.60;;;;;;;11.90;44.47;99100.69;4346985;32;33825;-83
2022/04/22 05:58:28;;;;;;;9.48;7.20;;;;;;;12.11;44.62;99098.56;4340313;32;34073;-82
2022/04/22 06:00:57;;;;;;;12.13;7.57;;;;;;;12.03;45.37;99099.00;4344108;32;34577;-82
2022/04/22 06:03:26;;;;;;;11.68;8.18;;;;;;;12.41;44.33;99094.94;4335459;32;33579;-83
2022/04/22 06:05:55;;;;;;;12.07;7.50;;;;;;;12.48;43.84;99091.81;4340472;32;34517;-83
2022/04/22 06:11:11;;;;;;;14.13;7.60;;;;;;;12.60;42.59;99086.69;4347936;32;34554;-83
2022/04/22 06:13:39;;;;;;;10.18;7.62;;;;;;;12.26;43.30;99091.47;4323436;32;33488;-82
2022/04/22 06:16:14;;;;;;;12.10;7.70;;;;;;;11.91;44.27;99081.22;4345844;32;33528;-82
2022/04/22 06:18:42;;;;;;;16.55;8.38;;;;;;;11.77;44.38;99094.37;4352208;32;33441;-82
2022/04/22 06:21:11;;;;;;;12.43;7.03;;;;;;;12.11;43.77;99087.97;4342527;32;33812;-83
2022/04/22 06:23:39;;;;;;;15.98;8.20;;;;;;;11.98;44.55;99077.25;4352322;32;34385;-83
2022/04/22 06:26:08;;;;;;;20.80;9.30;;;;;;;11.92;44.21;99085.59;4353195;32;33211;-83
2022/04/22 06:28:36;;;;;;;12.18;8.45;;;;;;;11.95;44.51;99072.16;4342064;32;32529;-82
2022/04/22 06:31:04;;;;;;;12.90;7.85;;;;;;;12.34;43.43;99078.56;4342646;32;34077;-82
2022/04/22 06:33:33;;;;;;;14.40;8.57;;;;;;;12.33;43.69;99070.75;4341699;32;32980;-82
2022/04/22 06:36:03;;;;;;;12.73;8.48;;;;;;;11.98;44.11;99081.72;4354945;32;34158;-82
2022/04/22 06:38:33;;;;;;;17.67;9.05;;;;;;;12.34;43.50;99067.97;4352119;32;33424;-82
2022/04/22 06:46:47;;;;;;;12.57;8.32;;;;;;;11.89;44.24;99064.59;4354512;32;33632;-82
2022/04/22 06:49:19;;;;;;;13.10;8.10;;;;;;;12.08;43.86;99066.13;4354835;32;34223;-82
2022/04/22 06:51:48;;;;;;;15.85;8.73;;;;;;;11.98;44.02;99071.97;4359171;32;32448;-82
2022/04/22 06:54:18;;;;;;;14.87;9.02;;;;;;;12.02;44.47;99067.34;4346053;32;33889;-83
2022/04/22 06:56:50;;;;;;;12.00;8.23;;;;;;;12.12;44.28;99067.62;4352829;32;33924;-82
2022/04/22 06:59:22;;;;;;;13.55;7.97;;;;;;;12.03;44.73;99067.25;4351082;32;32439;-83
2022/04/22 07:01:49;;;;;;;13.60;8.80;;;;;;;12.39;43.27;99063.28;4341057;32;32704;-82
2022/04/22 07:04:19;;;;;;;14.10;8.10;;;;;;;12.22;44.00;99066.13;4354714;32;34035;-82
2022/04/22 07:06:50;;;;;;;11.07;7.50;;;;;;;12.37;42.96;99062.50;4353869;32;32846;-82
2022/04/22 07:09:18;;;;;;;12.98;8.13;;;;;;;12.23;44.29;99070.47;4353522;32;32699;-82
2022/04/22 07:11:48;;;;;;;24.80;8.13;;;;;;;11.93;44.73;99074.06;4353528;32;33486;-82
2022/04/22 07:14:20;;;;;;;15.50;9.10;;;;;;;12.24;43.83;99070.34;4341313;32;33461;-82
2022/04/22 07:16:48;;;;;;;13.65;7.75;;;;;;;12.30;43.81;99071.78;4354981;32;33085;-83
2022/04/22 07:19:17;;;;;;;15.10;8.27;;;;;;;12.45;44.20;99070.81;4357011;32;33299;-83
2022/04/22 07:21:46;;;;;;;14.68;8.13;;;;;;;12.37;43.40;99072.25;4344208;32;34083;-83
2022/04/22 07:24:14;;;;;;;12.37;7.80;;;;;;;12.37;43.75;99070.44;4354598;32;33982;-83
2022/04/22 07:26:44;;;;;;;13.10;7.93;;;;;;;12.56;43.57;99073.63;4356314;32;33390;-82
2022/04/22 07:29:13;;;;;;;14.90;8.35;;;;;;;12.64;44.39;99074.97;4343690;32;34425;-82
2022/04/22 07:31:44;;;;;;;17.62;9.10;;;;;;;12.64;45.04;99065.22;4354123;32;33924;-83
2022/04/22 07:34:14;;;;;;;13.10;8.00;;;;;;;12.76;44.77;99059.12;4344488;32;33565;-82
2022/04/22 07:36:43;;;;;;;10.75;8.27;;;;;;;12.38;46.51;99068.66;4340654;32;32866;-83
2022/04/22 07:39:12;;;;;;;15.07;8.70;;;;;;;12.71;45.86;99060.38;4343136;32;31962;-82
2022/04/22 07:41:43;;;;;;;14.87;8.52;;;;;;;12.18;48.14;99061.97;4364799;32;33513;-82
2022/04/22 07:47:08;;;;;;;12.05;8.85;;;;;;;12.48;47.93;99059.19;4357310;32;35378;-82
2022/04/22 07:49:38;;;;;;;14.45;9.40;;;;;;;12.05;49.79;99064.50;4352891;32;32975;-82
2022/04/22 07:52:13;;;;;;;17.98;8.77;;;;;;;12.13;49.71;99064.03;4351878;32;33153;-83
2022/04/22 07:54:41;;;;;;;16.40;9.25;;;;;;;12.17;50.19;99058.47;4351514;32;33681;-84
2022/04/22 07:57:13;;;;;;;14.07;9.90;;;;;;;12.20;50.98;99060.94;4343083;32;33339;-84
2022/04/22 07:59:44;;;;;;;21.50;10.48;;;;;;;12.37;50.98;99062.50;4356855;32;33061;-84
2022/04/22 08:02:13;;;;;;;17.30;9.70;;;;;;;12.51;50.70;99057.19;4355605;32;33239;-84
2022/04/22 08:04:47;;;;;;;13.40;9.60;;;;;;;12.15;53.04;99064.78;4365200;32;33484;-84
2022/04/22 08:07:19;;;;;;;19.58;9.35;;;;;;;11.93;52.70;99068.75;4344231;32;34321;-84
2022/04/22 08:09:57;;;;;;;13.82;9.50;;;;;;;12.15;52.45;99062.97;4351938;32;34173;-84
2022/04/22 08:12:27;;;;;;;22.00;10.18;;;;;;;12.50;51.21;99059.94;4354288;32;34625;-83
2022/04/22 08:14:58;;;;;;;19.17;11.40;;;;;;;12.19;52.77;99063.66;4356195;32;32754;-84
2022/04/22 08:17:26;;;;;;;18.83;10.48;;;;;;;12.38;53.09;99058.91;4353999;32;34828;-84
2022/04/22 08:19:54;;;;;;;16.90;10.50;;;;;;;12.63;51.86;99058.22;4341610;32;33996;-90
2022/04/22 08:22:23;;;;;;;19.12;10.20;;;;;;;12.44;52.57;99052.41;4331772;32;33461;-90
2022/04/22 08:24:53;;;;;;;17.08;9.75;;;;;;;12.25;53.57;99055.34;4344173;32;32209;-90
2022/04/22 08:27:30;;;;;;;19.80;11.12;;;;;;;12.12;54.65;99059.69;4329223;32;32913;-89
2022/04/22 08:30:04;;;;;;;20.10;10.45;;;;;;;12.38;54.62;99050.13;4336054;32;33653;-89
2022/04/22 08:32:39;;;;;;;18.17;12.02;;;;;;;12.02;56.02;99052.31;4353774;32;34632;-84
2022/04/22 08:35:08;;;;;;;17.80;10.85;;;;;;;12.14;56.07;99060.44;4342246;32;33989;-84
2022/04/22 08:40:14;;;;;;;15.60;10.77;;;;;;;12.09;57.31;99046.66;4343345;32;32394;-84
2022/04/22 08:42:51;;;;;;;17.33;10.65;;;;;;;11.95;58.47;99037.75;4355091;32;34612;-84
2022/04/22 08:45:25;;;;;;;15.52;11.48;;;;;;;11.86;59.54;99034.81;4355614;32;33544;-84
2022/04/22 08:50:44;;;;;;;17.87;11.55;;;;;;;12.02;60.00;99025.87;4344264;32;32360;-84
2022/04/22 08:53:21;;;;;;;23.08;12.88;;;;;;;12.00;60.02;99017.16;4342208;32;32602;-84
2022/04/22 08:55:56;;;;;;;14.43;11.35;;;;;;;12.03;60.93;99024.91;4341835;32;33697;-84
2022/04/22 08:58:31;;;;;;;20.67;12.82;;;;;;;12.16;60.35;99017.06;4341541;32;33670;-84
2022/04/22 09:01:02;;;;;;;19.87;13.27;;;;;;;12.08;61.27;99011.41;4362460;32;33503;-84
2022/04/22 09:03:30;;;;;;;20.85;12.48;;;;;;;11.71;64.36;99018.06;4348981;32;33804;-84
2022/04/22 09:06:02;;;;;;;15.98;11.65;;;;;;;12.14;63.22;99008.38;4342196;32;33595;-83
2022/04/22 09:08:33;;;;;;;20.30;11.57;;;;;;;12.03;62.89;99001.09;4354631;32;33971;-83
2022/04/22 09:11:03;;;;;;;19.60;12.37;;;;;;;11.79;65.22;98992.84;4354193;32;34195;-83
2022/04/22 09:16:08;;;;;;;18.15;12.52;;;;;;;11.73;67.07;98987.09;4352825;32;34776;-83
2022/04/22 09:18:39;;;;;;;20.55;13.38;;;;;;;11.59;67.52;98982.66;4339993;32;32895;-83
2022/04/22 09:21:20;;;;;;;23.17;13.82;;;;;;;11.24;69.71;98982.13;4341693;32;32405;-83
2022/04/22 09:23:53;;;;;;;19.45;13.07;;;;;;;11.72;67.61;98986.22;4351926;32;33589;-89
2022/04/22 09:26:26;;;;;;;20.98;12.68;;;;;;;10.93;70.10;98975.16;4342155;32;32927;-90
2022/04/22 09:29:01;;;;;;;19.62;12.35;;;;;;;11.13;70.10;98960.78;4364233;32;36226;-83
2022/04/22 09:31:47;;;;;;;19.75;12.48;;;;;;;11.34;68.87;98959.47;4338198;32;31975;-81
2022/04/22 09:34:33;;;;;;;22.55;14.43;;;;;;;11.25;69.67;98970.59;4342114;32;33316;-81
2022/04/22 09:43:01;;;;;;;22.62;12.63;;;;;;;11.15;69.74;98949.16;4353929;32;33378;-80
2022/04/22 09:45:39;;;;;;;20.05;13.62;;;;;;;11.25;70.25;98941.53;4339266;32;32667;-81
2022/04/22 09:48:20;;;;;;;19.87;13.20;;;;;;;11.14;70.98;98951.91;4351202;32;33316;-81
2022/04/22 09:50:54;;;;;;;;;;;;;;;11.27;69.91;98939.66;4340821;32;32215;-81
2022/04/22 09:53:34;;;;;;;24.67;12.75;;;;;;;11.11;71.09;98942.37;4362802;32;33115;-80
2022/04/22 09:56:09;;;;;;;21.35;12.77;;;;;;;11.35;72.06;98944.50;4355165;32;33027;-80
2022/04/22 09:58:41;;;;;;;20.12;13.88;;;;;;;11.25;69.94;98938.88;4338997;32;32974;-80
2022/04/22 10:01:13;;;;;;;19.98;13.02;;;;;;;11.25;70.21;98944.16;4352992;32;33126;-80
2022/04/22 10:03:42;;;;;;;21.60;13.30;;;;;;;11.34;70.76;98948.91;4356516;32;33266;-81
2022/04/22 10:06:16;;;;;;;20.90;13.50;;;;;;;11.50;70.04;98952.34;4340942;32;33583;-81
2022/04/22 10:08:51;;;;;;;21.98;12.77;;;;;;;11.16;70.71;98960.59;4365274;32;34555;-81
2022/04/22 10:11:25;;;;;;;20.65;14.18;;;;;;;11.11;70.95;98947.66;4341979;32;34188;-80
2022/04/22 10:13:57;;;;;;;21.35;12.88;;;;;;;11.75;69.14;98934.97;4342329;32;33576;-81
2022/04/22 10:16:27;;;;;;;16.80;12.23;;;;;;;11.66;68.88;98932.88;4355231;32;33895;-80
2022/04/22 10:18:58;;;;;;;19.52;13.07;;;;;;;11.53;69.65;98930.12;4350654;32;33408;-80
2022/04/22 10:21:26;;;;;;;19.55;13.38;;;;;;;11.57;68.28;98933.44;4361976;32;32524;-80
2022/04/22 10:23:56;;;;;;;18.12;12.15;;;;;;;12.04;68.10;98926.06;4338041;33;33495;-81
2022/04/22 10:26:29;;;;;;;23.30;13.45;;;;;;;12.13;66.87;98907.91;4338078;33;33198;-81
2022/04/22 10:31:38;;;;;;;17.92;13.23;;;;;;;12.07;67.28;98913.59;4352455;32;33178;-80
2022/04/22 10:34:07;;;;;;;18.73;11.48;;;;;;;11.64;67.66;98918.91;4362851;32;32458;-81
2022/04/22 10:36:38;;;;;;;19.37;13.75;;;;;;;11.99;67.41;98914.06;4328074;33;33684;-81
2022/04/22 10:41:49;;;;;;;19.02;13.00;;;;;;;11.64;67.70;98916.28;4328601;33;32312;-81
2022/04/22 10:47:15;;;;;;;17.33;12.68;;;;;;;11.66;67.21;98902.00;4340350;33;33656;-80
2022/04/22 10:49:50;;;;;;;24.90;14.73;;;;;;;11.51;67.92;98900.31;4361439;32;33895;-81
2022/04/22 10:52:19;;;;;;;20.90;12.07;;;;;;;11.56;68.29;98884.16;4314652;33;33340;-81
2022/04/22 10:54:55;;;;;;;18.15;12.80;;;;;;;11.97;66.83;98885.09;4340865;33;33333;-81
2022/04/22 10:57:25;;;;;;;16.42;12.30;;;;;;;12.14;66.68;98885.78;4339890;32;33911;-81
2022/04/22 11:00:11;;;;;;;17.65;12.50;;;;;;;11.73;67.14;98891.91;4332337;32;33939;-81
2022/04/22 11:02:58;;;;;;;19.90;12.65;;;;;;;11.96;66.90;98891.31;4350137;32;33748;-81
2022/04/22 11:05:59;;;;;;;14.50;11.48;;;;;;;11.64;67.77;98893.31;4341158;32;33627;-82
2022/04/22 11:08:32;;;;;;;;;;;;;;;11.47;67.87;98893.50;4351719;32;31859;-81
2022/04/22 11:11:06;;;;;;;16.60;11.20;;;;;;;11.52;67.47;98879.06;4364389;32;34321;-81
2022/04/22 11:13:40;;;;;;;13.82;11.48;;;;;;;11.80;67.36;98885.25;4352459;32;34344;-81
2022/04/22 11:19:19;;;;;;;16.35;10.80;;;;;;;12.06;66.24;98875.72;4344492;32;33511;-81
2022/04/22 11:21:58;;;;;;;16.10;10.98;;;;;;;12.13;66.87;98868.22;4345108;32;35702;-81
2022/04/22 11:24:34;;;;;;;15.02;11.12;;;;;;;12.00;66.67;98869.00;4329560;32;34035;-81
2022/04/22 11:27:13;;;;;;;21.67;11.02;;;;;;;12.13;64.87;98860.28;4351910;32;33044;-81
2022/04/22 11:29:43;;;;;;;13.05;10.32;;;;;;;12.03;64.91;98860.88;4336648;32;33279;-81
2022/04/22 11:32:20;;;;;;;17.58;10.32;;;;;;;12.14;64.28;98856.69;4335576;32;34170;-81
2022/04/22 11:35:17;;;;;;;15.10;10.20;;;;;;;12.55;63.35;98854.81;4347465;32;32404;-81
2022/04/22 11:38:00;;;;;;;11.95;9.35;;;;;;;12.69;61.60;98853.88;4331379;32;32775;-81
2022/04/22 11:40:40;;;;;;;13.27;10.30;;;;;;;12.42;61.85;98853.06;4337692;32;32538;-81
2022/04/22 11:43:20;;;;;;;15.80;11.70;;;;;;;12.65;60.75;98862.12;4335069;32;33305;-80
2022/04/22 11:45:50;;;;;;;17.95;10.18;;;;;;;12.30;61.46;98854.75;4335856;32;34112;-81
2022/04/22 11:48:24;;;;;;;13.93;9.88;;;;;;;12.73;60.16;98862.47;4346736;32;33427;-80
2022/04/22 11:50:58;;;;;;;13.18;9.23;;;;;;;12.62;59.23;98854.38;4321597;32;32929;-81
2022/04/22 11:53:35;;;;;;;12.02;9.48;;;;;;;13.12;58.29;98855.41;4338141;32;34250;-81
2022/04/22 11:56:21;;;;;;;12.77;9.32;;;;;;;12.91;57.38;98842.66;4350965;32;34335;-81
2022/04/22 11:58:57;;;;;;;13.15;9.40;;;;;;;12.90;57.38;98838.31;4341062;32;35044;-81
2022/04/22 12:10:06;;;;;;;10.88;8.35;;;;;;;13.37;54.50;98818.28;4345666;32;33254;-82
2022/04/22 12:12:36;;;;;;;;;;;;;;;13.89;52.98;98806.59;4324183;32;32827;-81
2022/04/22 12:17:46;;;;;;;9.50;8.10;;;;;;;13.94;52.57;98796.47;4347326;32;32877;-82
2022/04/22 12:20:16;;;;;;;13.85;8.02;;;;;;;14.08;53.05;98790.16;4349556;32;33140;-83
2022/04/22 12:22:49;;;;;;;9.68;7.03;;;;;;;14.16;50.72;98786.94;4350918;32;33150;-82
2022/04/22 12:25:21;;;;;;;10.10;7.70;;;;;;;14.00;50.47;98776.59;4345962;32;32661;-81
2022/04/22 12:28:09;;;;;;;8.90;7.50;;;;;;;14.60;48.90;98767.66;4350409;32;33369;-82
2022/04/22 12:36:10;;;;;;;11.77;7.57;;;;;;;14.33;48.93;98783.84;4357446;32;34354;-86
2022/04/22 12:38:43;;;;;;;12.50;7.50;;;;;;;14.74;47.66;98782.56;4341114;32;31702;-85
2022/04/22 12:41:18;;;;;;;10.20;7.30;;;;;;;14.37;46.16;98781.81;4353939;32;33931;-86
2022/04/22 12:43:54;;;;;;;10.65;7.53;;;;;;;14.49;45.83;98781.78;4353084;32;33250;-85
2022/04/22 12:52:25;;;;;;;11.85;6.28;;;;;;;14.06;45.72;98766.37;4351214;32;33032;-85
2022/04/22 12:55:09;;;;;;;9.45;6.90;;;;;;;14.28;45.06;98762.12;4341520;32;31940;-85
2022/04/22 12:57:42;;;;;;;16.05;6.47;;;;;;;14.25;45.13;98763.22;4349944;32;32922;-86
2022/04/22 13:00:17;;;;;;;8.43;6.25;;;;;;;14.40;44.66;98763.00;4336240;32;33765;-86
2022/04/22 13:03:12;;;;;;;8.95;6.78;;;;;;;14.39;44.75;98772.78;4358048;32;33027;-85
2022/04/22 13:05:42;;;;;;;6.75;5.53;;;;;;;14.28;45.73;98764.78;4352591;32;34079;-87
2022/04/22 13:08:13;;;;;;;9.95;7.07;;;;;;;14.29;44.10;98758.50;4351867;32;34836;-86
2022/04/22 13:10:49;;;;;;;9.25;5.87;;;;;;;14.21;44.60;98747.62;4348609;32;33079;-86
2022/04/22 13:13:21;;;;;;;7.80;6.50;;;;;;;14.23;45.30;98743.03;4315865;32;625839;-86
2022/04/22 13:15:51;;;;;;;9.23;6.47;;;;;;;14.09;45.33;98742.25;4348658;32;33496;-85
2022/04/22 13:18:27;;;;;;;9.02;5.80;;;;;;;14.64;44.62;98745.22;4354821;32;34362;-86